EST,Max TemperatureF,Mean TemperatureF,Min TemperatureF,Max Dew PointF,MeanDew PointF,Min DewpointF,Max Humidity, Mean Humidity, Min Humidity, Max Sea Level PressureIn, Mean Sea Level PressureIn, Min Sea Level PressureIn, Max VisibilityMiles, Mean VisibilityMiles, Min VisibilityMiles, Max Wind SpeedMPH, Mean Wind SpeedMPH, Max Gust SpeedMPH,PrecipitationIn, CloudCover, Events, WindDirDegrees
2014-1-1,53,42,32,42,35,30,96,74,43,30.44,30.33,30.17,10,10,8,5,1,,0.01,3,Rain,35
2014-1-2,52,48,45,51,48,41,100,94,80,30.13,29.77,29.56,10,5,1,18,4,32,0.57,8,Rain,312
2014-1-3,50,39,28,48,22,10,93,56,33,30.48,30.10,29.61,10,10,10,25,16,36,0.00,3,Rain,336
2014-1-4,48,36,24,38,27,13,85,67,55,30.54,30.43,30.27,10,10,10,9,7,,0.00,4,,44
2014-1-5,64,52,39,63,57,38,100,92,81,30.25,30.05,29.86,10,8,2,12,5,,0.09,6,Rain,160
2014-1-6,66,50,30,63,49,5,97,81,35,30.14,29.80,29.70,10,9,2,25,12,38,0.12,5,Rain,241
2014-1-7,27,22,16,13,1,-5,77,43,28,30.56,30.43,30.17,10,10,4,23,14,30,0.00,0,,300
2014-1-8,41,29,17,21,13,-1,84,60,17,30.66,30.58,30.53,10,10,10,7,2,,0.00,0,,109
2014-1-9,54,40,25,36,27,18,85,62,41,30.59,30.53,30.47,10,10,9,10,3,,0.00,4,,40
2014-1-10,69,56,42,66,54,37,97,83,59,30.45,30.26,30.12,10,9,3,16,6,21,0.16,7,Rain,131
2014-1-11,72,64,57,68,64,55,97,91,81,30.11,29.88,29.68,10,9,2,30,12,44,0.43,6,Rain,205
2014-1-12,59,49,37,56,39,31,93,67,36,30.22,30.04,29.72,10,10,10,21,10,26,0.01,1,,279
2014-1-13,64,48,33,50,41,31,96,77,45,30.24,30.15,30.01,10,10,9,13,3,,0.00,1,Rain,171
2014-1-14,63,52,41,61,51,40,100,93,83,30.01,29.90,29.77,10,6,0,31,7,39,0.45,6,Fog-Rain,229
2014-1-15,57,46,35,47,40,34,100,91,47,30.01,29.96,29.86,10,3,0,9,1,,0.00,1,Fog,225
2014-1-16,45,36,28,40,33,28,96,82,65,30.10,29.97,29.87,10,9,5,16,8,22,0.00,5,Rain,330
2014-1-17,55,42,28,44,32,23,92,63,31,30.12,30.02,29.87,10,10,6,14,5,18,0.00,0,,207
2014-1-18,52,40,27,46,24,14,80,54,36,30.10,29.98,29.84,10,10,10,21,10,31,0.06,3,Rain-Thunderstorm,269
2014-1-19,53,40,27,31,25,18,72,54,36,30.08,30.01,29.94,10,10,10,15,5,25,0.00,1,,235
2014-1-20,63,51,39,38,31,26,71,53,26,29.97,29.91,29.83,10,10,10,12,8,21,0.00,0,,229
2014-1-21,64,48,30,46,36,25,87,63,30,29.86,29.65,29.49,10,10,6,25,11,37,0.11,4,Rain-Snow-Thunderstorm,244
2014-1-22,34,30,21,25,19,14,89,69,46,30.15,29.96,29.76,10,10,6,23,14,33,0.00,5,,336
2014-1-23,39,30,21,20,15,9,92,61,30,30.38,30.26,30.14,10,10,8,14,3,,0.00,0,,347
2014-1-24,28,21,14,13,1,-4,80,42,27,30.60,30.47,30.37,10,10,10,20,13,26,0.00,1,,343
2014-1-25,46,30,14,29,15,3,80,49,28,30.32,29.98,29.71,10,10,10,20,7,29,0.00,2,,227
2014-1-26,52,40,28,34,24,18,72,53,31,30.04,29.97,29.88,10,10,10,18,7,18,0.00,0,,217
2014-1-27,64,55,46,43,35,31,83,53,29,30.03,29.91,29.83,10,10,10,16,8,24,0.00,1,,224
2014-1-28,,,,,,,,,,,,,,,,,,,0.00,,,-1
2014-1-29,,,,,,,,,,,,,,,,,,,,,,
2014-1-30,,,,,,,,,,,,,,,,,,,,,,
2014-1-31,,,,,,,,,,,,,,,,,,,,,,